createdAt,value
2018-05-10T00:00:51.391Z,97815
2018-05-10T00:03:19.152Z,97815
2018-05-10T00:05:46.287Z,97811
2018-05-10T00:08:13.388Z,97817
2018-05-10T00:10:40.385Z,97819
2018-05-10T00:13:07.378Z,97817
2018-05-10T00:15:34.601Z,97819
2018-05-10T00:18:02.368Z,97820
2018-05-10T00:20:30.143Z,97814
2018-05-10T00:22:57.113Z,97814
2018-05-10T00:25:24.111Z,97812
2018-05-10T00:27:51.190Z,97813
2018-05-10T00:30:18.263Z,97809
2018-05-10T00:32:45.263Z,97810
2018-05-10T00:35:12.261Z,97809
2018-05-10T00:37:39.254Z,97805
2018-05-10T00:40:06.995Z,97802
2018-05-10T00:42:34.003Z,97798
2018-05-10T00:45:01.009Z,97805
2018-05-10T00:47:28.026Z,97809
2018-05-10T00:52:55.531Z,97805
2018-05-10T00:55:22.553Z,97804
2018-05-10T00:57:52.397Z,97806
2018-05-10T01:00:19.361Z,97730
2018-05-10T01:02:46.398Z,97807
2018-05-10T01:05:13.411Z,97805
2018-05-10T01:07:40.419Z,97803
2018-05-10T01:10:07.428Z,97803
2018-05-10T01:12:34.448Z,97800
2018-05-10T01:15:01.432Z,97801
2018-05-10T01:17:29.191Z,97806
2018-05-10T01:19:56.184Z,97808
2018-05-10T01:22:23.184Z,97806
2018-05-10T01:24:50.156Z,97811
2018-05-10T01:27:17.199Z,97808
2018-05-10T01:29:44.914Z,97810
2018-05-10T01:32:11.896Z,97808
2018-05-10T01:34:40.233Z,97809
2018-05-10T01:37:07.506Z,97806
2018-05-10T01:39:34.499Z,97804
2018-05-10T01:42:01.741Z,97810
2018-05-10T01:44:28.726Z,97808
2018-05-10T01:46:55.791Z,97813
2018-05-10T01:49:23.669Z,97816
2018-05-10T01:51:50.658Z,97820
2018-05-10T01:54:17.661Z,97820
2018-05-10T01:56:44.641Z,97823
2018-05-10T01:59:11.643Z,97818
2018-05-10T02:01:38.666Z,97817
2018-05-10T02:04:05.783Z,97821
2018-05-10T02:06:32.782Z,97817
2018-05-10T02:08:59.743Z,97816
2018-05-10T02:11:26.776Z,97811
2018-05-10T02:13:53.750Z,97811
2018-05-10T02:16:21.491Z,97808
2018-05-10T02:18:48.483Z,97810
2018-05-10T02:21:15.481Z,97804
2018-05-10T02:23:42.496Z,97808
2018-05-10T02:26:09.493Z,97799
2018-05-10T02:28:36.471Z,97801
2018-05-10T02:31:03.464Z,97800
2018-05-10T02:33:30.461Z,97800
2018-05-10T02:35:57.443Z,97803
2018-05-10T02:38:24.419Z,97805
2018-05-10T02:40:51.411Z,97810
2018-05-10T02:43:18.434Z,97807
2018-05-10T02:45:46.156Z,97812
2018-05-10T02:48:13.203Z,97815
2018-05-10T02:50:40.186Z,97815
2018-05-10T02:53:07.911Z,97819
2018-05-10T02:55:34.877Z,97818
2018-05-10T02:58:01.961Z,97821
2018-05-10T03:00:28.954Z,97823
2018-05-10T03:02:55.926Z,97829
2018-05-10T03:05:23.671Z,97829
2018-05-10T03:07:50.654Z,97836
2018-05-10T03:10:18.391Z,97840
2018-05-10T03:12:45.386Z,97841
2018-05-10T03:15:12.398Z,97842
2018-05-10T03:17:40.158Z,97844
2018-05-10T03:20:07.921Z,97842
2018-05-10T03:22:34.923Z,97837
2018-05-10T03:25:01.916Z,97838
2018-05-10T03:27:28.946Z,97840
2018-05-10T03:29:55.951Z,97840
2018-05-10T03:32:22.946Z,97846
2018-05-10T03:34:49.975Z,97842
2018-05-10T03:37:17.003Z,97843
2018-05-10T03:39:43.993Z,97843
2018-05-10T03:42:11.004Z,97852
2018-05-10T03:44:38.079Z,97855
2018-05-10T03:47:05.183Z,97855
2018-05-10T03:49:32.356Z,97861
2018-05-10T03:51:59.359Z,97860
2018-05-10T03:54:27.099Z,97860
2018-05-10T03:56:54.067Z,97854
2018-05-10T03:59:21.791Z,97858
2018-05-10T04:01:48.761Z,97862
2018-05-10T04:04:34.581Z,97865
2018-05-10T04:07:20.572Z,97868
2018-05-10T04:10:05.739Z,97876
2018-05-10T04:12:32.940Z,97876
2018-05-10T04:14:59.929Z,97884
2018-05-10T04:17:27.644Z,97884
2018-05-10T04:19:54.641Z,97885
2018-05-10T04:22:22.370Z,97884
2018-05-10T04:24:49.384Z,97887
2018-05-10T04:27:16.354Z,97885
2018-05-10T04:29:43.361Z,97887
2018-05-10T04:32:10.332Z,97890
2018-05-10T04:34:37.451Z,97887
2018-05-10T04:37:04.459Z,97892
2018-05-10T04:39:32.211Z,97892
2018-05-10T04:41:59.214Z,97894
2018-05-10T04:44:26.292Z,97895
2018-05-10T04:46:53.372Z,97899
2018-05-10T04:49:20.351Z,97897
2018-05-10T04:51:47.384Z,97899
2018-05-10T04:54:14.434Z,97893
2018-05-10T04:56:41.487Z,97891
2018-05-10T04:59:08.468Z,97892
2018-05-10T05:01:35.455Z,97894
2018-05-10T05:04:02.411Z,97900
2018-05-10T05:06:30.129Z,97900
2018-05-10T05:08:57.156Z,97904
2018-05-10T05:11:24.159Z,97902
2018-05-10T05:13:51.164Z,97908
2018-05-10T05:16:18.143Z,97909
2018-05-10T05:18:45.140Z,97908
2018-05-10T05:21:12.137Z,97909
2018-05-10T05:23:39.903Z,97910
2018-05-10T05:26:06.901Z,97912
2018-05-10T05:28:33.903Z,97914
2018-05-10T05:31:00.981Z,97919
2018-05-10T05:33:27.949Z,97923
2018-05-10T05:35:54.956Z,97927
2018-05-10T05:38:22.711Z,97931
2018-05-10T05:40:50.463Z,97935
2018-05-10T05:43:17.481Z,97939
2018-05-10T05:45:44.459Z,97937
2018-05-10T05:48:11.738Z,97940
2018-05-10T05:50:38.761Z,97943
2018-05-10T05:53:05.752Z,97948
2018-05-10T05:55:32.786Z,97951
2018-05-10T05:57:59.804Z,97951
2018-05-10T06:00:26.831Z,97953
2018-05-10T06:02:53.864Z,97955
2018-05-10T06:05:20.863Z,97959
2018-05-10T06:07:48.623Z,97964
2018-05-10T06:10:16.371Z,97947
2018-05-10T06:12:43.383Z,97972
2018-05-10T06:15:10.366Z,97973
2018-05-10T06:17:37.386Z,97976
2018-05-10T06:20:04.546Z,97971
2018-05-10T06:22:31.536Z,97982
2018-05-10T06:24:58.572Z,97983
2018-05-10T06:27:25.542Z,97983
2018-05-10T06:29:52.529Z,97988
2018-05-10T06:32:20.091Z,97981
2018-05-10T06:34:47.241Z,97981
2018-05-10T06:37:14.249Z,97989
2018-05-10T06:39:41.231Z,97981
2018-05-10T06:42:08.221Z,97981
2018-05-10T06:44:35.221Z,97981
2018-05-10T06:47:02.231Z,97982
2018-05-10T06:49:29.257Z,97983
2018-05-10T06:51:57.009Z,97984
2018-05-10T06:54:24.034Z,97980
2018-05-10T06:56:51.114Z,97981
2018-05-10T06:59:18.829Z,97990
2018-05-10T07:01:45.842Z,97992
2018-05-10T07:04:12.834Z,97988
2018-05-10T07:06:39.869Z,97985
2018-05-10T07:09:07.003Z,97990
2018-05-10T07:11:33.989Z,97991
2018-05-10T07:14:00.983Z,97999
2018-05-10T07:16:27.980Z,97996
2018-05-10T07:18:54.955Z,97991
2018-05-10T07:21:22.742Z,97998
2018-05-10T07:23:49.771Z,98001
2018-05-10T07:26:17.529Z,97999
2018-05-10T07:28:45.262Z,98004
2018-05-10T07:31:12.245Z,98002
2018-05-10T07:33:39.999Z,97999
2018-05-10T07:36:07.039Z,98000
2018-05-10T07:38:34.045Z,98005
2018-05-10T07:41:01.064Z,98005
2018-05-10T07:43:28.070Z,98002
2018-05-10T07:45:55.047Z,98011
2018-05-10T07:48:22.851Z,98012
2018-05-10T07:50:49.868Z,98018
2018-05-10T07:53:16.876Z,98017
2018-05-10T07:55:44.702Z,98025
2018-05-10T07:58:11.712Z,98027
2018-05-10T08:00:39.429Z,98028
2018-05-10T08:03:06.459Z,98033
2018-05-10T08:05:33.451Z,98032
2018-05-10T08:08:00.470Z,98037
2018-05-10T08:10:27.455Z,98041
2018-05-10T08:12:54.459Z,98038
2018-05-10T08:15:21.455Z,98041
2018-05-10T08:17:48.605Z,98038
2018-05-10T08:20:16.374Z,98038
2018-05-10T08:22:44.135Z,98048
2018-05-10T08:25:11.161Z,98044
2018-05-10T08:27:46.187Z,98046
2018-05-10T08:30:13.255Z,98048
2018-05-10T08:32:41.937Z,98045
2018-05-10T08:35:09.030Z,98043
2018-05-10T08:37:36.007Z,98047
2018-05-10T08:40:03.193Z,98050
2018-05-10T08:42:30.172Z,98042
2018-05-10T08:44:57.213Z,98044
2018-05-10T08:47:24.209Z,98048
2018-05-10T08:49:52.010Z,98040
2018-05-10T08:52:19.012Z,98047
2018-05-10T08:54:46.052Z,98046
2018-05-10T08:57:13.101Z,98048
2018-05-10T08:59:40.126Z,98045
2018-05-10T09:02:07.631Z,98045
2018-05-10T09:04:34.694Z,98044
2018-05-10T09:07:01.679Z,98041
2018-05-10T09:09:28.694Z,98042
2018-05-10T09:11:55.659Z,98037
2018-05-10T09:14:23.419Z,98042
2018-05-10T09:16:51.166Z,98032
2018-05-10T09:19:18.650Z,98035
2018-05-10T09:21:45.634Z,98029
2018-05-10T09:24:12.659Z,98026
2018-05-10T09:26:39.644Z,98040
2018-05-10T09:29:06.624Z,98037
2018-05-10T09:31:34.418Z,98040
2018-05-10T09:34:01.427Z,98039
2018-05-10T09:36:28.449Z,98041
2018-05-10T09:38:55.454Z,98049
2018-05-10T09:41:22.427Z,98045
2018-05-10T09:43:49.446Z,98044
2018-05-10T09:46:16.550Z,98043
2018-05-10T09:48:43.510Z,98043
2018-05-10T09:51:11.294Z,98047
2018-05-10T09:53:38.382Z,98042
2018-05-10T09:56:05.374Z,98039
2018-05-10T09:58:33.202Z,98034
2018-05-10T10:01:00.252Z,98032
2018-05-10T10:03:27.276Z,98028
2018-05-10T10:05:54.269Z,98025
2018-05-10T10:08:21.307Z,98032
2018-05-10T10:10:48.466Z,98027
2018-05-10T10:13:15.534Z,98022
2018-05-10T10:15:42.612Z,98024
2018-05-10T10:18:09.689Z,98025
2018-05-10T10:20:36.742Z,98028
2018-05-10T10:23:03.811Z,98003
2018-05-10T10:25:30.869Z,98034
2018-05-10T10:27:58.005Z,98033
2018-05-10T10:30:25.042Z,98021
2018-05-10T10:32:52.149Z,98023
2018-05-10T10:35:19.236Z,98021
2018-05-10T10:37:46.281Z,98015
2018-05-10T10:40:13.290Z,98013
2018-05-10T10:42:40.298Z,98012
2018-05-10T10:45:07.342Z,98010
2018-05-10T10:47:34.359Z,98007
2018-05-10T10:50:01.360Z,98011
2018-05-10T10:52:28.352Z,98013
2018-05-10T10:54:55.374Z,98007
2018-05-10T10:57:22.401Z,98012
2018-05-10T10:59:49.445Z,98014
2018-05-10T11:02:16.466Z,98018
2018-05-10T11:04:43.516Z,98022
2018-05-10T11:07:10.491Z,98024
2018-05-10T11:09:37.504Z,98014
2018-05-10T11:12:04.545Z,98023
2018-05-10T11:14:31.568Z,98017
2018-05-10T11:16:58.594Z,98023
2018-05-10T11:19:25.671Z,98017
2018-05-10T11:21:52.701Z,98017
2018-05-10T11:24:19.699Z,98011
2018-05-10T11:26:46.676Z,98010
2018-05-10T11:29:13.699Z,98012
2018-05-10T11:31:41.434Z,98004
2018-05-10T11:34:08.426Z,98011
2018-05-10T11:36:35.452Z,98007
2018-05-10T11:39:03.510Z,98013
2018-05-10T11:41:30.481Z,98010
2018-05-10T11:43:58.250Z,98007
2018-05-10T11:46:25.249Z,98000
2018-05-10T11:48:52.284Z,97999
2018-05-10T11:51:20.045Z,97999
2018-05-10T11:53:47.068Z,98002
2018-05-10T11:56:14.097Z,98008
2018-05-10T11:58:41.893Z,98004
2018-05-10T12:01:08.952Z,98006
2018-05-10T12:03:35.967Z,98002
2018-05-10T12:06:03.048Z,98004
2018-05-10T12:08:30.104Z,98011
2018-05-10T12:10:57.123Z,98015
2018-05-10T12:13:24.159Z,98022
2018-05-10T12:15:51.949Z,98021
2018-05-10T12:18:19.017Z,98013
2018-05-10T12:20:46.035Z,98013
2018-05-10T12:23:13.090Z,98014
2018-05-10T12:25:40.582Z,98023
2018-05-10T12:28:07.519Z,98031
2018-05-10T12:30:34.569Z,98030
2018-05-10T12:33:01.573Z,98040
2018-05-10T12:35:28.587Z,98037
2018-05-10T12:37:56.334Z,98036
2018-05-10T12:40:24.117Z,98033
2018-05-10T12:42:51.152Z,98037
2018-05-10T12:45:18.194Z,98039
2018-05-10T12:47:45.217Z,98037
2018-05-10T12:50:12.226Z,98030
2018-05-10T12:52:39.987Z,98033
2018-05-10T12:55:07.012Z,98035
2018-05-10T12:57:34.074Z,98038
2018-05-10T13:00:02.012Z,98049
2018-05-10T13:02:29.060Z,98043
2018-05-10T13:04:56.087Z,98047
2018-05-10T13:07:23.428Z,98051
2018-05-10T13:09:50.469Z,98052
2018-05-10T13:12:17.564Z,98054
2018-05-10T13:14:44.599Z,98052
2018-05-10T13:17:11.867Z,98059
2018-05-10T13:19:38.910Z,98053
2018-05-10T13:22:05.930Z,98053
2018-05-10T13:24:33.687Z,98060
2018-05-10T13:27:00.684Z,98057
2018-05-10T13:29:28.478Z,98057
2018-05-10T13:31:56.209Z,98052
2018-05-10T13:34:23.192Z,98053
2018-05-10T13:36:50.212Z,98054
2018-05-10T13:39:17.972Z,98047
2018-05-10T13:41:44.999Z,98048
2018-05-10T13:44:12.065Z,98047
2018-05-10T13:46:39.179Z,98051
2018-05-10T13:49:06.221Z,98051
2018-05-10T13:51:33.279Z,98059
2018-05-10T13:54:00.305Z,98066
2018-05-10T13:56:27.409Z,98069
2018-05-10T13:58:54.552Z,98079
2018-05-10T14:01:22.327Z,98077
2018-05-10T14:03:49.329Z,98073
2018-05-10T14:06:16.341Z,98068
2018-05-10T14:08:44.890Z,98072
2018-05-10T14:11:11.987Z,98071
2018-05-10T14:13:42.426Z,98066
2018-05-10T14:16:09.907Z,98069
2018-05-10T14:18:37.512Z,98071
2018-05-10T14:21:05.143Z,98068
2018-05-10T14:23:32.945Z,98074
2018-05-10T14:26:00.368Z,98074
2018-05-10T14:28:27.712Z,98072
2018-05-10T14:30:55.007Z,98071
2018-05-10T14:33:25.209Z,98068
2018-05-10T14:35:53.364Z,98073
2018-05-10T14:38:21.433Z,98071
2018-05-10T14:40:48.792Z,98078
2018-05-10T14:43:17.048Z,98084
2018-05-10T14:45:44.389Z,98085
2018-05-10T14:48:11.564Z,98086
2018-05-10T14:50:38.707Z,98090
2018-05-10T14:53:05.772Z,98089
2018-05-10T14:55:32.846Z,98093
2018-05-10T14:58:00.711Z,98095
2018-05-10T15:00:28.723Z,98099
2018-05-10T15:02:56.808Z,98096
2018-05-10T15:05:23.924Z,98093
2018-05-10T15:07:51.247Z,98098
2018-05-10T15:10:19.377Z,98098
2018-05-10T15:12:46.441Z,98106
2018-05-10T15:15:13.499Z,98108
2018-05-10T15:17:40.594Z,98109
2018-05-10T15:20:08.728Z,98106
2018-05-10T15:22:35.884Z,98103
2018-05-10T15:25:03.235Z,98100
2018-05-10T15:27:30.350Z,98097
2018-05-10T15:29:57.430Z,98106
2018-05-10T15:32:24.526Z,98112
2018-05-10T15:34:52.352Z,98110
2018-05-10T15:37:19.452Z,98108
2018-05-10T15:39:46.494Z,98111
2018-05-10T15:42:13.571Z,98113
2018-05-10T15:44:40.634Z,98113
2018-05-10T15:47:07.718Z,98120
2018-05-10T15:49:34.739Z,98123
2018-05-10T15:52:01.778Z,98118
2018-05-10T15:54:28.844Z,98122
2018-05-10T15:56:55.889Z,98119
2018-05-10T15:59:22.884Z,98121
2018-05-10T16:01:50.005Z,98117
2018-05-10T16:04:17.039Z,98119
2018-05-10T16:06:44.237Z,98114
2018-05-10T16:09:11.204Z,98109
2018-05-10T16:11:38.207Z,98109
2018-05-10T16:14:05.974Z,98106
2018-05-10T16:16:33.059Z,98110
2018-05-10T16:19:00.041Z,98111
2018-05-10T16:21:27.082Z,98104
2018-05-10T16:23:54.114Z,98100
2018-05-10T16:26:21.195Z,98098
2018-05-10T16:28:48.317Z,98105
2018-05-10T16:31:15.329Z,98103
2018-05-10T16:33:42.302Z,98109
2018-05-10T16:36:09.342Z,98111
2018-05-10T16:38:36.854Z,98110
2018-05-10T16:41:04.052Z,98112
2018-05-10T16:43:31.190Z,98110
2018-05-10T16:45:58.249Z,98116
2018-05-10T16:48:25.273Z,98112
2018-05-10T16:50:52.351Z,98111
2018-05-10T16:53:19.451Z,98114
2018-05-10T16:55:46.514Z,98119
2018-05-10T16:58:13.558Z,98122
2018-05-10T17:00:40.647Z,98132
2018-05-10T17:03:07.712Z,98132
2018-05-10T17:05:34.797Z,98133
2018-05-10T17:08:01.953Z,98140
2018-05-10T17:10:29.195Z,98145
2018-05-10T17:12:56.312Z,98149
2018-05-10T17:15:23.414Z,98148
2018-05-10T17:17:50.497Z,98148
2018-05-10T17:20:17.605Z,98151
2018-05-10T17:22:44.914Z,98149
2018-05-10T17:25:11.977Z,98153
2018-05-10T17:27:39.051Z,98152
2018-05-10T17:30:06.129Z,98157
2018-05-10T17:32:33.213Z,98155
2018-05-10T17:35:00.276Z,98161
2018-05-10T17:37:28.119Z,98161
2018-05-10T17:39:55.194Z,98162
2018-05-10T17:42:23.389Z,98162
2018-05-10T17:44:50.511Z,98164
2018-05-10T17:47:18.341Z,98162
2018-05-10T17:49:45.364Z,98167
2018-05-10T17:52:13.181Z,98182
2018-05-10T17:54:40.218Z,98186
2018-05-10T17:57:07.328Z,98183
2018-05-10T17:59:34.386Z,98183
2018-05-10T18:02:02.191Z,98183
2018-05-10T18:04:29.326Z,98189
2018-05-10T18:06:56.381Z,98189
2018-05-10T18:09:23.476Z,98189
2018-05-10T18:11:51.385Z,98190
2018-05-10T18:14:18.446Z,98188
2018-05-10T18:16:45.454Z,98190
2018-05-10T18:19:12.491Z,98193
2018-05-10T18:21:39.504Z,98191
2018-05-10T18:24:06.502Z,98199
2018-05-10T18:26:33.501Z,98204
2018-05-10T18:29:00.568Z,98206
2018-05-10T18:31:27.609Z,98212
2018-05-10T18:33:55.356Z,98220
2018-05-10T18:36:22.409Z,98224
2018-05-10T18:38:49.442Z,98224
2018-05-10T18:41:16.519Z,98232
2018-05-10T18:43:44.347Z,98238
2018-05-10T18:46:11.384Z,98245
2018-05-10T18:48:38.406Z,98247
2018-05-10T18:51:05.407Z,98247
2018-05-10T18:53:32.397Z,98110
2018-05-10T18:55:59.441Z,98254
2018-05-10T18:58:26.442Z,98256
2018-05-10T19:00:53.469Z,98261
2018-05-10T19:03:20.493Z,98264
2018-05-10T19:05:47.514Z,98270
2018-05-10T19:08:15.289Z,98271
2018-05-10T19:10:42.339Z,98274
2018-05-10T19:13:09.399Z,98289
2018-05-10T19:15:36.411Z,98292
2018-05-10T19:18:05.211Z,98296
2018-05-10T19:20:33.047Z,98299
2018-05-10T19:23:00.190Z,98298
2018-05-10T19:25:27.947Z,98298
2018-05-10T19:27:55.167Z,98304
2018-05-10T19:30:23.069Z,98306
2018-05-10T19:32:50.109Z,98308
2018-05-10T19:35:17.222Z,98310
2018-05-10T19:37:44.324Z,98314
2018-05-10T19:40:12.231Z,98316
2018-05-10T19:42:39.329Z,98323
2018-05-10T19:45:06.473Z,98321
2018-05-10T19:47:33.587Z,98324
2018-05-10T19:50:01.431Z,98321
2018-05-10T19:52:29.387Z,98319
2018-05-10T19:54:57.290Z,98315
2018-05-10T19:57:24.387Z,98316
2018-05-10T19:59:51.512Z,98317
2018-05-10T20:02:18.639Z,98324
2018-05-10T20:04:45.834Z,98318
2018-05-10T20:07:13.044Z,98317
2018-05-10T20:09:40.148Z,98322
2018-05-10T20:12:07.337Z,98329
2018-05-10T20:14:34.419Z,98341
2018-05-10T20:17:02.536Z,98338
2018-05-10T20:19:30.422Z,98342
2018-05-10T20:21:57.651Z,98348
2018-05-10T20:24:25.509Z,98350
2018-05-10T20:26:53.404Z,98349
2018-05-10T20:29:20.492Z,98353
2018-05-10T20:31:47.534Z,98366
2018-05-10T20:34:14.554Z,98361
2018-05-10T20:36:41.622Z,98365
2018-05-10T20:39:08.746Z,98363
2018-05-10T20:41:35.931Z,98367
2018-05-10T20:44:03.137Z,98368
2018-05-10T20:46:30.934Z,98373
2018-05-10T20:48:57.987Z,98377
2018-05-10T20:51:24.992Z,98380
2018-05-10T20:53:52.765Z,98379
2018-05-10T20:56:20.554Z,98384
2018-05-10T20:58:47.589Z,98379
2018-05-10T21:01:14.619Z,98379
2018-05-10T21:03:42.502Z,98384
2018-05-10T21:06:10.036Z,98381
2018-05-10T21:08:37.833Z,98383
2018-05-10T21:11:04.899Z,98385
2018-05-10T21:13:31.984Z,98390
2018-05-10T21:15:59.085Z,98388
2018-05-10T21:18:26.137Z,98363
2018-05-10T21:20:53.166Z,98391
2018-05-10T21:23:20.206Z,98397
2018-05-10T21:25:47.269Z,98400
2018-05-10T21:28:14.311Z,98403
2018-05-10T21:30:41.714Z,98406
2018-05-10T21:33:08.781Z,98407
2018-05-10T21:35:36.681Z,98407
2018-05-10T21:38:03.874Z,98412
2018-05-10T21:40:30.969Z,98414
2018-05-10T21:42:58.140Z,98407
2018-05-10T21:45:25.849Z,98408
2018-05-10T21:47:52.836Z,98413
2018-05-10T21:50:20.032Z,98411
2018-05-10T21:52:47.042Z,98418
2018-05-10T21:55:14.201Z,98419
2018-05-10T21:57:41.211Z,98418
2018-05-10T22:00:08.266Z,98425
2018-05-10T22:02:35.343Z,98426
2018-05-10T22:05:02.383Z,98431
2018-05-10T22:07:29.411Z,98427
2018-05-10T22:09:57.285Z,98422
2018-05-10T22:12:24.274Z,98425
2018-05-10T22:14:51.343Z,98423
2018-05-10T22:17:18.419Z,98427
2018-05-10T22:19:45.421Z,98428
2018-05-10T22:22:12.469Z,98430
2018-05-10T22:24:39.466Z,98436
2018-05-10T22:27:07.201Z,98439
2018-05-10T22:29:34.206Z,98437
2018-05-10T22:32:01.240Z,98441
2018-05-10T22:34:28.244Z,98442
2018-05-10T22:36:55.261Z,98446
2018-05-10T22:39:22.308Z,98447
2018-05-10T22:41:49.426Z,98447
2018-05-10T22:44:16.635Z,98441
2018-05-10T22:46:43.569Z,98438
2018-05-10T22:49:10.581Z,98435
2018-05-10T22:51:37.589Z,98443
2018-05-10T22:54:05.373Z,98443
2018-05-10T22:56:32.414Z,98444
2018-05-10T22:59:00.203Z,98451
2018-05-10T23:01:27.306Z,98444
2018-05-10T23:03:55.086Z,98442
2018-05-10T23:06:22.921Z,98438
2018-05-10T23:08:49.951Z,98433
2018-05-10T23:11:17.006Z,98438
2018-05-10T23:13:44.046Z,98438
2018-05-10T23:16:11.271Z,98447
2018-05-10T23:18:38.403Z,98446
2018-05-10T23:21:06.141Z,98444
2018-05-10T23:23:33.218Z,98445
2018-05-10T23:26:01.044Z,98441
2018-05-10T23:28:28.180Z,98441
2018-05-10T23:30:55.169Z,98442
2018-05-10T23:33:23.474Z,98448
2018-05-10T23:35:50.496Z,98443
2018-05-10T23:38:18.255Z,98447
2018-05-10T23:40:45.991Z,98446
2018-05-10T23:43:12.986Z,98449
2018-05-10T23:45:39.999Z,98446
2018-05-10T23:48:07.031Z,98446
2018-05-10T23:50:35.674Z,98448
2018-05-10T23:53:02.664Z,98450
2018-05-10T23:55:29.696Z,98446
2018-05-10T23:57:56.691Z,98445
